Time;durP1;ratioP1;P1;durP2;ratioP2;P2;SDS_P1;SDS_P2;PMS_P1;PMS_P2;Temp;Humidity;BMP_temperature;BMP_pressure;BME280_temperature;BME280_humidity;BME280_pressure;Samples;Min_cycle;Max_cycle;Signal;HPM_P1;HPM_P2
2023/04/22 00:02:22;;;;;;;27.13;24.70;;;12.50;99.90;;;;;;4982010;28;20120;-77
2023/04/22 00:04:49;;;;;;;26.25;24.35;;;12.50;99.90;;;;;;4988111;28;20080;-72
2023/04/22 00:07:16;;;;;;;27.75;25.52;;;12.40;99.90;;;;;;5024872;28;20041;-74
2023/04/22 00:09:44;;;;;;;27.50;25.40;;;12.30;99.90;;;;;;5012050;28;20049;-72
2023/04/22 00:12:11;;;;;;;26.65;24.58;;;12.10;99.90;;;;;;5014405;28;20037;-73
2023/04/22 00:14:38;;;;;;;27.88;25.50;;;11.90;99.90;;;;;;4992100;28;20038;-76
2023/04/22 00:17:05;;;;;;;27.92;25.10;;;12.00;99.90;;;;;;4999192;28;20086;-76
2023/04/22 00:19:33;;;;;;;26.40;24.13;;;12.00;99.90;;;;;;5011162;28;20038;-75
2023/04/22 00:22:00;;;;;;;26.88;24.90;;;11.90;99.90;;;;;;4982689;28;20061;-73
2023/04/22 00:24:29;;;;;;;28.08;25.67;;;11.80;99.90;;;;;;4990894;28;20056;-77
2023/04/22 00:26:56;;;;;;;28.70;26.35;;;11.60;99.90;;;;;;5010902;28;20481;-73
2023/04/22 00:29:24;;;;;;;27.92;25.63;;;11.50;99.90;;;;;;4977172;28;20048;-76
2023/04/22 00:31:51;;;;;;;26.98;24.70;;;11.30;99.90;;;;;;4990188;28;20137;-74
2023/04/22 00:34:18;;;;;;;26.30;24.02;;;11.40;99.90;;;;;;4988283;28;20643;-75
2023/04/22 00:36:45;;;;;;;27.70;25.48;;;11.40;99.90;;;;;;5003340;28;20064;-74
2023/04/22 00:39:14;;;;;;;28.30;26.02;;;11.30;99.90;;;;;;4988584;28;20077;-74
2023/04/22 00:41:41;;;;;;;29.25;26.92;;;11.10;99.90;;;;;;4998299;28;20060;-75
2023/04/22 00:44:09;;;;;;;29.67;27.38;;;11.00;99.90;;;;;;5013019;28;20507;-75
2023/04/22 00:46:39;;;;;;;28.92;26.50;;;10.70;99.90;;;;;;4987275;28;20140;-75
2023/04/22 00:49:07;;;;;;;29.05;26.67;;;10.50;99.90;;;;;;4991904;28;20132;-75
2023/04/22 00:51:34;;;;;;;28.90;26.45;;;10.40;99.90;;;;;;4978810;28;20045;-76
2023/04/22 00:54:01;;;;;;;28.98;26.30;;;10.20;99.90;;;;;;4996737;28;20042;-76
2023/04/22 00:56:30;;;;;;;29.23;26.52;;;10.10;99.90;;;;;;5006536;28;20112;-76
2023/04/22 00:58:57;;;;;;;27.92;25.73;;;10.00;99.90;;;;;;5000095;28;20046;-75
2023/04/22 01:01:25;;;;;;;28.60;26.10;;;9.90;99.90;;;;;;4980946;28;20049;-75
2023/04/22 01:03:52;;;;;;;26.83;24.65;;;9.90;99.90;;;;;;5003151;28;20161;-76
2023/04/22 01:06:21;;;;;;;27.90;25.33;;;9.90;99.90;;;;;;4977618;28;20041;-76
2023/04/22 01:08:47;;;;;;;27.38;24.73;;;9.80;99.90;;;;;;4988902;28;20052;-75
2023/04/22 01:11:14;;;;;;;26.85;24.85;;;9.70;99.90;;;;;;4991817;28;20038;-75
2023/04/22 01:13:41;;;;;;;26.77;24.63;;;9.60;99.90;;;;;;5014665;22;20152;-73
2023/04/22 01:16:09;;;;;;;27.55;25.08;;;9.60;99.90;;;;;;4981080;28;20046;-72
2023/04/22 01:18:36;;;;;;;28.27;25.70;;;9.50;99.90;;;;;;4997271;28;20046;-72
2023/04/22 01:21:03;;;;;;;25.58;23.67;;;9.50;99.90;;;;;;4985908;28;20132;-74
2023/04/22 01:23:30;;;;;;;25.27;23.45;;;9.50;99.90;;;;;;4981319;28;20048;-75
2023/04/22 01:25:57;;;;;;;26.23;24.23;;;9.40;99.90;;;;;;4995250;28;20052;-72
2023/04/22 01:28:24;;;;;;;26.67;24.13;;;9.40;99.90;;;;;;4973115;28;20042;-72
2023/04/22 01:30:51;;;;;;;26.98;24.98;;;9.40;99.90;;;;;;4974857;28;20046;-73
2023/04/22 01:33:18;;;;;;;26.73;24.67;;;9.30;99.90;;;;;;4996874;28;20049;-73
2023/04/22 01:35:45;;;;;;;26.75;24.15;;;9.30;99.90;;;;;;4987021;28;20315;-72
2023/04/22 01:38:12;;;;;;;26.90;24.48;;;9.30;99.90;;;;;;4985154;28;20052;-74
2023/04/22 01:40:39;;;;;;;25.70;23.63;;;9.30;99.90;;;;;;4984315;28;20277;-74
2023/04/22 01:43:06;;;;;;;26.10;23.55;;;9.30;99.90;;;;;;4983442;28;20141;-74
2023/04/22 01:45:33;;;;;;;26.40;24.10;;;9.30;99.90;;;;;;4992241;28;20037;-71
2023/04/22 01:48:00;;;;;;;27.10;24.70;;;9.30;99.90;;;;;;4982342;28;20034;-73
2023/04/22 01:50:27;;;;;;;24.73;22.65;;;9.30;99.90;;;;;;4987024;28;20155;-73
2023/04/22 01:52:54;;;;;;;23.83;21.90;;;9.30;99.90;;;;;;4996670;28;20030;-71
2023/04/22 01:55:21;;;;;;;24.90;22.88;;;9.60;99.90;;;;;;4963453;28;20045;-73
2023/04/22 01:57:48;;;;;;;24.67;22.80;;;9.70;99.90;;;;;;4981891;28;20096;-72
2023/04/22 02:00:15;;;;;;;26.00;23.95;;;9.60;99.90;;;;;;4980799;28;20041;-73
2023/04/22 02:02:45;;;;;;;26.02;23.63;;;9.70;99.90;;;;;;4961363;28;20073;-72
2023/04/22 02:05:12;;;;;;;25.23;23.23;;;9.70;99.90;;;;;;4973744;28;20298;-74
2023/04/22 02:07:39;;;;;;;24.45;22.55;;;9.90;99.90;;;;;;4981598;28;20060;-74
2023/04/22 02:10:06;;;;;;;24.98;23.02;;;10.10;99.90;;;;;;4979567;28;20058;-71
2023/04/22 02:12:33;;;;;;;23.80;21.98;;;10.40;99.90;;;;;;4976983;28;20176;-74
2023/04/22 02:15:00;;;;;;;24.15;22.27;;;10.60;99.90;;;;;;4977228;28;20026;-72
2023/04/22 02:17:27;;;;;;;23.13;21.30;;;10.80;99.90;;;;;;4976918;28;20045;-72
2023/04/22 02:19:54;;;;;;;23.02;21.13;;;10.90;99.90;;;;;;4989793;28;20144;-73
2023/04/22 02:22:22;;;;;;;23.40;21.48;;;11.00;99.90;;;;;;4991758;28;20181;-73
2023/04/22 02:24:50;;;;;;;24.17;22.50;;;11.20;99.90;;;;;;4980943;28;20053;-70
2023/04/22 02:27:16;;;;;;;25.05;22.77;;;11.30;99.90;;;;;;4996437;28;20038;-73
2023/04/22 02:29:45;;;;;;;23.63;21.92;;;11.20;99.90;;;;;;4967166;28;20049;-73
2023/04/22 02:32:12;;;;;;;24.92;23.05;;;11.10;99.90;;;;;;4967661;28;20102;-73
2023/04/22 02:34:39;;;;;;;24.35;22.52;;;11.00;99.90;;;;;;4998574;28;20125;-73
2023/04/22 02:37:06;;;;;;;25.50;23.40;;;11.00;99.90;;;;;;4966645;28;20068;-71
2023/04/22 02:39:32;;;;;;;25.73;23.42;;;10.90;99.90;;;;;;4987462;28;20052;-72
2023/04/22 02:42:00;;;;;;;24.08;22.15;;;10.90;99.90;;;;;;4983692;28;20508;-71
2023/04/22 02:44:27;;;;;;;24.23;22.33;;;10.90;99.90;;;;;;4981656;28;20049;-71
2023/04/22 02:46:54;;;;;;;23.08;21.45;;;10.90;99.90;;;;;;4980860;28;20063;-73
2023/04/22 02:49:21;;;;;;;25.02;23.02;;;10.90;99.90;;;;;;4972953;28;20435;-72
2023/04/22 02:51:48;;;;;;;23.92;22.10;;;10.90;99.90;;;;;;4973398;28;20450;-73
2023/04/22 02:54:15;;;;;;;23.92;22.42;;;11.10;99.90;;;;;;4982118;28;20054;-74
2023/04/22 02:56:41;;;;;;;24.63;22.77;;;10.90;99.90;;;;;;4982315;28;20065;-73
2023/04/22 02:59:09;;;;;;;24.60;22.77;;;11.00;99.90;;;;;;4992570;28;20466;-74
2023/04/22 03:01:35;;;;;;;24.65;22.60;;;10.90;99.90;;;;;;4983212;28;20128;-73
2023/04/22 03:04:05;;;;;;;25.73;23.65;;;10.80;99.90;;;;;;4974012;28;20081;-73
2023/04/22 03:06:32;;;;;;;24.90;22.95;;;10.60;99.90;;;;;;4980963;28;20058;-73
2023/04/22 03:08:58;;;;;;;26.15;24.05;;;10.60;99.90;;;;;;4966525;28;20038;-73
2023/04/22 03:11:26;;;;;;;24.70;22.70;;;10.60;99.90;;;;;;4977536;28;20049;-73
2023/04/22 03:13:52;;;;;;;24.83;22.83;;;10.50;99.90;;;;;;4972567;28;20037;-73
2023/04/22 03:16:22;;;;;;;25.38;23.27;;;10.40;99.90;;;;;;4978574;28;20052;-73
2023/04/22 03:18:51;;;;;;;25.80;23.70;;;10.40;99.90;;;;;;4975186;28;20046;-73
2023/04/22 03:21:17;;;;;;;24.27;22.40;;;10.50;99.90;;;;;;4976785;28;20038;-71
2023/04/22 03:23:45;;;;;;;24.23;22.38;;;10.50;99.90;;;;;;4976685;28;20050;-73
2023/04/22 03:26:12;;;;;;;24.63;22.83;;;10.50;99.90;;;;;;4969643;28;20054;-72
2023/04/22 03:28:40;;;;;;;24.67;22.77;;;10.60;99.90;;;;;;4983078;28;20053;-73
2023/04/22 03:31:07;;;;;;;24.95;22.85;;;10.70;99.90;;;;;;4975398;28;20053;-73
2023/04/22 03:33:34;;;;;;;24.90;22.83;;;10.70;99.90;;;;;;4978338;28;20152;-74
2023/04/22 03:36:11;;;;;;;25.17;23.02;;;10.90;99.90;;;;;;4960144;28;20278;-73
2023/04/22 03:38:38;;;;;;;23.88;22.27;;;11.00;99.90;;;;;;4983819;28;20081;-72
2023/04/22 03:41:05;;;;;;;24.67;22.60;;;11.10;99.90;;;;;;4968602;28;20045;-73
2023/04/22 03:43:38;;;;;;;25.25;23.08;;;11.20;99.90;;;;;;4974989;28;20042;-74
2023/04/22 03:46:07;;;;;;;26.13;23.75;;;11.30;99.90;;;;;;4981015;28;20519;-73
2023/04/22 03:48:38;;;;;;;25.05;22.90;;;11.30;99.90;;;;;;4986911;28;20064;-74
2023/04/22 03:51:10;;;;;;;24.13;22.42;;;11.30;99.90;;;;;;4978770;28;20046;-73
2023/04/22 03:53:39;;;;;;;24.83;22.73;;;11.30;99.90;;;;;;4974197;28;20053;-74
2023/04/22 03:56:07;;;;;;;24.98;23.08;;;11.30;99.90;;;;;;4957678;28;20153;-74
2023/04/22 03:58:37;;;;;;;26.02;23.60;;;11.20;99.90;;;;;;4959825;28;20265;-73
2023/04/22 04:01:06;;;;;;;25.85;23.88;;;11.00;99.90;;;;;;4973535;28;20503;-74
2023/04/22 04:03:34;;;;;;;25.00;23.17;;;10.90;99.90;;;;;;4978829;28;20042;-74
2023/04/22 04:06:02;;;;;;;33.35;31.08;;;10.90;99.90;;;;;;4973124;28;20048;-74
2023/04/22 04:08:28;;;;;;;26.63;24.63;;;10.90;99.90;;;;;;4997098;28;20042;-74
2023/04/22 04:10:55;;;;;;;25.42;23.20;;;10.80;99.90;;;;;;4977728;28;20503;-74
2023/04/22 04:13:23;;;;;;;25.88;23.88;;;10.70;99.90;;;;;;4966107;28;20208;-74
2023/04/22 04:16:09;;;;;;;27.23;25.40;;;10.60;99.90;;;;;;4980696;28;20312;-72
2023/04/22 04:18:39;;;;;;;24.80;22.90;;;10.80;99.90;;;;;;4962462;28;20126;-73
2023/04/22 04:21:05;;;;;;;25.23;23.45;;;10.80;99.90;;;;;;4970911;28;20151;-74
2023/04/22 04:23:36;;;;;;;24.17;22.23;;;10.80;99.90;;;;;;4962455;28;20408;-74
2023/04/22 04:26:04;;;;;;;23.98;22.17;;;10.80;99.90;;;;;;4968136;28;20225;-74
2023/04/22 04:28:34;;;;;;;33.13;31.15;;;10.90;99.90;;;;;;4982037;28;20034;-75
2023/04/22 04:31:01;;;;;;;33.03;30.95;;;10.80;99.90;;;;;;4963343;28;20137;-72
2023/04/22 04:33:31;;;;;;;34.28;31.92;;;10.90;99.90;;;;;;4986206;28;20053;-73
2023/04/22 04:35:58;;;;;;;33.25;30.90;;;10.80;99.90;;;;;;4972994;28;20046;-72
2023/04/22 04:38:29;;;;;;;33.03;30.92;;;10.80;99.90;;;;;;4993430;28;20069;-73
2023/04/22 04:40:56;;;;;;;24.38;22.67;;;10.90;99.90;;;;;;4976270;28;20041;-75
2023/04/22 04:43:24;;;;;;;25.73;23.27;;;11.10;99.90;;;;;;4978168;28;20071;-74
2023/04/22 04:45:58;;;;;;;25.25;23.35;;;11.00;99.90;;;;;;4977051;28;20392;-75
2023/04/22 04:48:34;;;;;;;25.00;23.15;;;10.90;99.90;;;;;;4967964;28;20473;-75
2023/04/22 04:51:06;;;;;;;33.03;30.90;;;10.90;99.90;;;;;;4970769;28;20052;-74
2023/04/22 04:53:39;;;;;;;32.22;30.23;;;11.00;99.90;;;;;;4964782;28;20278;-74
2023/04/22 04:56:06;;;;;;;32.55;30.45;;;11.00;99.90;;;;;;4971660;28;20076;-73
2023/04/22 04:58:33;;;;;;;31.83;29.55;;;11.10;99.90;;;;;;4984345;28;20072;-74
2023/04/22 05:01:15;;;;;;;31.88;29.33;;;11.20;99.90;;;;;;4982312;28;20042;-75
2023/04/22 05:03:43;;;;;;;31.75;29.33;;;11.10;99.90;;;;;;4976323;28;20061;-75
2023/04/22 05:06:13;;;;;;;30.63;28.63;;;11.10;99.90;;;;;;5020620;22;20428;-78
2023/04/22 05:08:45;;;;;;;30.45;28.35;;;11.20;99.90;;;;;;5028737;28;20044;-77
2023/04/22 05:11:12;;;;;;;29.50;27.50;;;11.20;99.90;;;;;;5025308;28;20039;-79
2023/04/22 05:13:40;;;;;;;30.48;28.30;;;11.20;99.90;;;;;;5028129;28;20095;-79
2023/04/22 05:16:11;;;;;;;31.25;29.15;;;11.20;99.90;;;;;;5011437;28;20033;-78
2023/04/22 05:18:39;;;;;;;32.30;30.27;;;11.30;99.90;;;;;;5030612;28;20037;-80
2023/04/22 05:21:08;;;;;;;33.05;30.95;;;11.30;99.90;;;;;;5025001;28;20619;-78
2023/04/22 05:23:35;;;;;;;32.42;30.13;;;11.40;99.90;;;;;;5031243;28;20037;-78
2023/04/22 05:26:04;;;;;;;32.45;30.25;;;11.40;99.90;;;;;;5028866;28;20048;-76
2023/04/22 05:28:32;;;;;;;30.75;28.80;;;11.50;99.90;;;;;;5032610;28;20048;-78
2023/04/22 05:30:59;;;;;;;31.58;29.38;;;11.40;99.90;;;;;;5029358;28;20250;-78
2023/04/22 05:33:28;;;;;;;32.83;30.38;;;11.50;99.90;;;;;;5033087;28;20044;-78
2023/04/22 05:35:55;;;;;;;32.45;30.23;;;11.60;99.90;;;;;;5010752;28;20045;-78
2023/04/22 05:38:22;;;;;;;32.03;30.02;;;11.60;99.90;;;;;;5030019;28;20300;-76
2023/04/22 05:40:49;;;;;;;32.65;30.33;;;11.80;99.90;;;;;;5028556;28;20418;-77
2023/04/22 05:43:16;;;;;;;31.98;29.75;;;11.90;99.90;;;;;;5014606;28;20099;-77
2023/04/22 05:45:48;;;;;;;35.72;33.53;;;12.00;99.90;;;;;;5029629;28;20395;-79
2023/04/22 05:48:16;;;;;;;39.78;37.38;;;12.00;99.90;;;;;;5016526;28;20065;-78
2023/04/22 05:50:54;;;;;;;34.33;32.13;;;12.20;99.90;;;;;;5011935;28;20126;-79
2023/04/22 05:53:20;;;;;;;39.47;36.88;;;12.20;99.90;;;;;;5039719;28;20093;-79
2023/04/22 05:55:47;;;;;;;41.40;38.83;;;12.30;99.90;;;;;;5029530;28;20044;-78
2023/04/22 05:58:14;;;;;;;36.55;33.95;;;12.30;99.90;;;;;;5027071;28;20284;-80
2023/04/22 06:00:49;;;;;;;40.78;38.33;;;12.40;99.90;;;;;;5031240;28;20534;-76
2023/04/22 06:03:39;;;;;;;40.92;38.30;;;12.40;99.90;;;;;;5032983;28;20394;-78
2023/04/22 06:06:06;;;;;;;39.42;37.22;;;12.40;99.90;;;;;;5014393;28;20091;-78
2023/04/22 06:08:33;;;;;;;41.30;38.97;;;12.40;99.90;;;;;;5034789;28;20039;-78
2023/04/22 06:11:00;;;;;;;38.42;36.00;;;12.40;99.90;;;;;;5032091;28;20373;-78
2023/04/22 06:13:29;;;;;;;40.08;37.53;;;12.50;99.90;;;;;;5037428;28;20478;-75
2023/04/22 06:15:56;;;;;;;42.08;39.47;;;12.50;99.90;;;;;;5029692;28;20488;-76
2023/04/22 06:18:24;;;;;;;41.10;38.50;;;12.60;99.90;;;;;;5035807;28;20502;-76
2023/04/22 06:20:54;;;;;;;39.50;37.20;;;12.50;99.90;;;;;;5034835;28;20056;-78
2023/04/22 06:23:21;;;;;;;40.47;38.10;;;12.60;99.90;;;;;;5032923;28;20037;-76
2023/04/22 06:25:47;;;;;;;38.45;36.17;;;12.70;99.90;;;;;;5036480;28;20127;-77
2023/04/22 06:28:15;;;;;;;40.30;38.00;;;12.80;99.90;;;;;;5030484;28;20290;-75
2023/04/22 06:30:43;;;;;;;39.85;37.33;;;12.70;99.90;;;;;;5034369;28;20494;-77
2023/04/22 06:33:10;;;;;;;41.08;38.60;;;12.80;99.90;;;;;;5031584;28;20049;-76
2023/04/22 06:35:36;;;;;;;38.95;36.55;;;12.90;99.90;;;;;;5032323;28;20095;-78
2023/04/22 06:38:04;;;;;;;37.90;35.60;;;12.90;99.90;;;;;;5028888;28;20525;-75
2023/04/22 06:40:38;;;;;;;38.58;36.28;;;13.00;99.90;;;;;;5019463;28;20345;-77
2023/04/22 06:43:05;;;;;;;39.45;37.15;;;13.20;99.90;;;;;;5032337;28;21747;-78
2023/04/22 06:45:51;;;;;;;37.83;35.72;;;13.20;99.90;;;;;;5017473;28;20530;-77
2023/04/22 06:48:41;;;;;;;39.05;37.00;;;13.20;99.90;;;;;;5024668;28;20460;-76
2023/04/22 06:51:21;;;;;;;33.08;31.27;;;13.30;99.90;;;;;;5016603;28;20044;-75
2023/04/22 06:53:49;;;;;;;35.75;33.67;;;13.30;99.90;;;;;;5018843;28;20308;-76
2023/04/22 06:56:15;;;;;;;36.17;33.97;;;13.30;99.90;;;;;;5025281;28;20036;-76
2023/04/22 06:58:42;;;;;;;36.42;34.22;;;13.30;99.90;;;;;;5031957;28;20037;-77
2023/04/22 07:01:09;;;;;;;34.58;32.53;;;13.30;99.90;;;;;;5027845;28;20304;-78
2023/04/22 07:03:38;;;;;;;37.25;35.00;;;13.40;99.90;;;;;;5032286;28;20044;-76
2023/04/22 07:06:08;;;;;;;37.90;35.60;;;13.50;99.90;;;;;;5013801;28;20227;-79
2023/04/22 07:08:35;;;;;;;39.40;37.08;;;13.60;99.90;;;;;;5034103;28;20047;-78
2023/04/22 07:11:02;;;;;;;34.53;32.42;;;13.80;99.90;;;;;;5028533;28;20132;-77
2023/04/22 07:13:42;;;;;;;34.63;32.63;;;13.90;99.90;;;;;;5016374;28;20506;-77
2023/04/22 07:16:09;;;;;;;34.97;32.83;;;14.00;99.90;;;;;;5028757;28;20474;-79
2023/04/22 07:18:37;;;;;;;38.40;35.85;;;14.30;99.90;;;;;;5027547;28;20049;-76
2023/04/22 07:21:04;;;;;;;42.45;39.95;;;14.50;99.90;;;;;;5029865;28;20453;-78
2023/04/22 07:23:30;;;;;;;34.95;33.05;;;14.80;99.90;;;;;;5032917;28;20052;-77
2023/04/22 07:25:57;;;;;;;38.60;36.45;;;15.20;99.90;;;;;;5028153;28;20060;-78
2023/04/22 07:28:24;;;;;;;37.92;35.92;;;15.30;99.90;;;;;;5030407;28;20450;-78
2023/04/22 07:30:51;;;;;;;38.28;36.17;;;15.40;99.90;;;;;;5031369;28;20041;-77
2023/04/22 07:33:17;;;;;;;32.95;31.17;;;15.50;99.90;;;;;;5030615;28;20242;-76
2023/04/22 07:35:44;;;;;;;38.03;35.92;;;15.70;99.90;;;;;;5033128;28;20064;-76
2023/04/22 07:38:11;;;;;;;40.47;38.33;;;15.80;99.90;;;;;;5030347;28;20114;-79
2023/04/22 07:40:40;;;;;;;40.58;38.30;;;15.70;99.90;;;;;;5031817;28;20553;-76
2023/04/22 07:43:06;;;;;;;40.50;38.45;;;15.50;99.90;;;;;;5031471;28;20071;-77
2023/04/22 07:45:33;;;;;;;44.10;41.65;;;15.60;99.90;;;;;;5031104;28;20040;-77
2023/04/22 07:48:00;;;;;;;40.78;38.67;;;15.50;99.90;;;;;;5031810;28;20094;-77
2023/04/22 07:50:27;;;;;;;41.53;39.35;;;15.50;99.90;;;;;;5014934;28;20453;-76
2023/04/22 07:52:53;;;;;;;43.72;41.42;;;15.30;99.90;;;;;;5032886;28;20476;-77
2023/04/22 07:55:20;;;;;;;39.22;37.22;;;15.20;99.90;;;;;;5028093;28;20025;-77
2023/04/22 07:57:47;;;;;;;42.22;39.90;;;15.30;99.90;;;;;;5032868;28;20055;-76
2023/04/22 08:00:14;;;;;;;42.72;40.33;;;15.40;99.90;;;;;;5029506;28;20144;-77
2023/04/22 08:02:42;;;;;;;40.17;38.08;;;15.40;99.90;;;;;;5032562;28;20040;-78
2023/04/22 08:05:10;;;;;;;40.25;38.03;;;15.70;99.90;;;;;;5029128;28;20307;-75
2023/04/22 08:07:39;;;;;;;40.70;38.60;;;15.90;99.90;;;;;;5032737;28;20621;-79
2023/04/22 08:10:06;;;;;;;42.70;40.50;;;16.00;99.90;;;;;;5032948;28;20044;-79
2023/04/22 08:12:33;;;;;;;43.80;41.33;;;16.30;99.90;;;;;;5017799;28;20083;-79
2023/04/22 08:15:00;;;;;;;39.97;37.95;;;16.50;99.90;;;;;;5032620;28;20095;-78
2023/04/22 08:17:27;;;;;;;43.08;40.88;;;16.50;99.90;;;;;;5014212;28;20052;-77
2023/04/22 08:19:53;;;;;;;43.08;40.80;;;16.30;99.90;;;;;;5036590;28;20249;-78
2023/04/22 08:22:20;;;;;;;41.40;39.25;;;16.30;99.90;;;;;;5028734;28;20044;-76
2023/04/22 08:24:47;;;;;;;38.97;36.90;;;16.30;99.90;;;;;;5033223;28;20048;-79
2023/04/22 08:27:13;;;;;;;39.42;37.13;;;16.50;99.90;;;;;;5029980;28;20049;-79
2023/04/22 08:29:40;;;;;;;33.25;31.35;;;16.70;99.90;;;;;;5036721;28;20037;-79
2023/04/22 08:32:08;;;;;;;40.10;38.00;;;16.60;99.90;;;;;;5031017;28;20036;-77
2023/04/22 08:34:34;;;;;;;32.78;30.83;;;16.70;99.90;;;;;;5035442;28;20518;-79
2023/04/22 08:37:02;;;;;;;35.60;32.97;;;16.80;99.90;;;;;;5033750;28;20125;-79
2023/04/22 08:39:29;;;;;;;37.22;34.95;;;17.00;99.90;;;;;;5039445;28;20041;-79
2023/04/22 08:41:57;;;;;;;32.60;30.70;;;17.20;99.90;;;;;;5052833;28;20132;-79
2023/04/22 08:44:25;;;;;;;37.20;35.20;;;17.80;99.90;;;;;;5046920;28;20045;-79
2023/04/22 08:46:53;;;;;;;34.17;32.13;;;18.20;99.90;;;;;;5036074;28;20337;-74
2023/04/22 08:49:23;;;;;;;38.17;35.97;;;18.10;99.90;;;;;;5029848;28;20049;-77
2023/04/22 08:51:51;;;;;;;37.92;35.92;;;17.90;99.90;;;;;;5032417;28;20037;-76
2023/04/22 08:54:18;;;;;;;36.55;34.22;;;18.00;99.90;;;;;;5012028;28;20049;-77
2023/04/22 08:56:45;;;;;;;36.15;33.97;;;18.00;99.90;;;;;;5033374;28;20041;-81
2023/04/22 08:59:12;;;;;;;38.47;35.88;;;18.30;99.90;;;;;;5032416;28;20069;-77
2023/04/22 09:01:40;;;;;;;39.15;36.58;;;18.40;99.90;;;;;;5032978;28;20067;-80
2023/04/22 09:04:09;;;;;;;37.22;35.20;;;18.50;99.90;;;;;;5030150;28;20041;-77
2023/04/22 09:06:37;;;;;;;36.53;34.58;;;18.70;99.90;;;;;;5031703;28;20237;-78
2023/04/22 09:09:05;;;;;;;37.25;35.15;;;18.90;99.90;;;;;;5027806;28;20053;-78
2023/04/22 09:11:33;;;;;;;38.28;35.67;;;19.00;99.90;;;;;;5035359;28;20293;-77
2023/04/22 09:14:00;;;;;;;38.58;36.38;;;19.00;99.90;;;;;;5031442;28;20067;-76
2023/04/22 09:16:32;;;;;;;37.25;35.35;;;19.00;99.90;;;;;;5026045;28;20037;-76
2023/04/22 09:18:59;;;;;;;37.17;35.17;;;19.30;99.90;;;;;;5014277;28;20131;-76
2023/04/22 09:21:27;;;;;;;37.72;35.55;;;19.60;99.90;;;;;;5030098;28;20045;-77
2023/04/22 09:23:55;;;;;;;38.17;35.83;;;20.00;99.90;;;;;;5031651;28;20499;-78
2023/04/22 09:26:24;;;;;;;47.90;45.50;;;20.20;99.90;;;;;;5011696;28;20041;-80
2023/04/22 09:28:59;;;;;;;51.15;48.55;;;19.90;99.90;;;;;;5014668;28;20053;-78
2023/04/22 09:31:27;;;;;;;50.45;47.97;;;19.80;99.90;;;;;;5028428;28;20131;-79
2023/04/22 09:33:56;;;;;;;51.00;48.45;;;20.00;99.90;;;;;;5035732;28;20171;-79
2023/04/22 09:36:27;;;;;;;49.03;46.60;;;20.20;99.90;;;;;;5031871;28;20076;-78
2023/04/22 09:38:56;;;;;;;53.28;50.58;;;20.20;99.90;;;;;;5032428;28;20050;-78
2023/04/22 09:41:28;;;;;;;53.60;50.78;;;20.30;99.90;;;;;;5033282;28;20055;-78
2023/04/22 09:43:59;;;;;;;55.42;52.72;;;20.50;99.90;;;;;;5035204;28;20080;-79
2023/04/22 09:46:27;;;;;;;54.95;52.15;;;20.50;99.90;;;;;;5032728;28;20409;-78
2023/04/22 09:48:55;;;;;;;54.08;51.38;;;20.60;99.90;;;;;;5035844;28;20081;-79
2023/04/22 09:51:23;;;;;;;56.15;53.05;;;20.80;99.90;;;;;;5031398;28;20069;-79
2023/04/22 09:54:05;;;;;;;53.53;50.83;;;21.10;99.90;;;;;;5034978;28;20041;-76
2023/04/22 09:56:52;;;;;;;53.97;51.28;;;20.30;99.90;;;;;;5033473;28;20457;-78
2023/04/22 09:59:21;;;;;;;53.65;50.92;;;20.40;99.90;;;;;;5031671;28;20076;-78
2023/04/22 10:01:48;;;;;;;53.63;50.83;;;20.50;99.90;;;;;;5036409;28;20482;-78
2023/04/22 10:04:19;;;;;;;55.38;52.58;;;20.80;99.90;;;;;;5033760;28;20049;-78
2023/04/22 10:06:47;;;;;;;55.65;52.38;;;20.90;99.90;;;;;;5033276;28;20088;-79
2023/04/22 10:09:17;;;;;;;52.38;49.33;;;20.80;99.90;;;;;;5032963;28;20133;-78
2023/04/22 10:11:45;;;;;;;53.00;50.30;;;20.90;99.90;;;;;;5030863;28;20041;-77
2023/04/22 10:14:15;;;;;;;53.30;50.60;;;21.10;99.90;;;;;;5031679;28;20053;-78
2023/04/22 10:16:46;;;;;;;53.40;50.58;;;21.10;99.90;;;;;;5034484;28;20045;-79
2023/04/22 10:19:19;;;;;;;55.00;52.15;;;21.20;99.90;;;;;;5031849;28;20064;-79
2023/04/22 10:21:48;;;;;;;51.85;49.05;;;21.30;99.90;;;;;;5034527;28;20523;-78
2023/04/22 10:24:16;;;;;;;50.58;47.88;;;21.40;99.90;;;;;;5034544;28;20063;-78
2023/04/22 10:26:56;;;;;;;52.83;50.03;;;21.30;99.90;;;;;;5033766;28;20041;-76
2023/04/22 10:29:25;;;;;;;53.80;51.00;;;21.40;99.90;;;;;;5032458;28;20048;-79
2023/04/22 10:32:03;;;;;;;55.95;53.15;;;21.40;99.90;;;;;;5032531;28;20668;-77
2023/04/22 10:34:33;;;;;;;55.75;52.78;;;21.60;99.90;;;;;;5035672;28;20048;-76
2023/04/22 10:37:08;;;;;;;55.13;52.28;;;22.00;99.90;;;;;;5032298;28;20136;-79
2023/04/22 10:39:34;;;;;;;52.05;49.08;;;22.30;99.90;;;;;;5013046;28;20143;-78
2023/04/22 10:42:01;;;;;;;55.92;53.13;;;22.20;99.90;;;;;;5032487;28;20610;-77
2023/04/22 10:44:43;;;;;;;51.70;49.10;;;22.30;99.90;;;;;;5032025;28;20049;-78
2023/04/22 10:47:10;;;;;;;52.08;49.38;;;22.10;99.90;;;;;;5032267;28;20397;-76
2023/04/22 10:49:37;;;;;;;53.13;50.20;;;21.70;99.90;;;;;;5035306;28;20052;-78
2023/04/22 10:52:06;;;;;;;53.80;51.00;;;21.60;99.90;;;;;;5015380;28;20053;-77
2023/04/22 10:54:36;;;;;;;51.58;48.88;;;21.60;99.90;;;;;;5016708;28;20110;-80
2023/04/22 10:57:10;;;;;;;53.42;50.65;;;21.60;99.90;;;;;;5031234;28;20281;-78
2023/04/22 10:59:50;;;;;;;51.38;48.67;;;21.40;99.90;;;;;;5031361;28;20041;-77
2023/04/22 11:02:18;;;;;;;50.17;47.65;;;21.60;99.90;;;;;;5029848;28;20066;-76
2023/04/22 11:04:45;;;;;;;53.53;50.63;;;21.40;99.90;;;;;;5032682;28;20413;-78
2023/04/22 11:07:26;;;;;;;50.65;48.15;;;21.20;99.90;;;;;;5037081;22;20041;-73
2023/04/22 11:10:06;;;;;;;52.15;49.55;;;21.20;99.90;;;;;;5002901;28;20042;-76
2023/04/22 11:12:38;;;;;;;53.35;50.38;;;21.20;99.90;;;;;;4998584;28;20030;-75
2023/04/22 11:15:06;;;;;;;50.75;47.80;;;21.10;99.90;;;;;;5007970;28;20488;-73
2023/04/22 11:17:33;;;;;;;51.97;49.17;;;21.10;99.90;;;;;;4999258;28;20128;-74
2023/04/22 11:20:01;;;;;;;51.20;48.38;;;21.10;99.90;;;;;;5007680;28;20249;-75
2023/04/22 11:22:37;;;;;;;54.40;51.50;;;21.20;99.90;;;;;;5015849;28;20299;-74
2023/04/22 11:25:08;;;;;;;55.50;52.20;;;21.20;99.90;;;;;;5024623;28;20368;-77
2023/04/22 11:27:35;;;;;;;56.22;53.38;;;21.30;99.90;;;;;;5016738;28;20052;-76
2023/04/22 11:30:04;;;;;;;52.50;49.70;;;21.40;99.90;;;;;;5015782;28;20059;-76
2023/04/22 11:32:31;;;;;;;54.47;51.70;;;21.40;99.90;;;;;;5013387;28;20064;-76
2023/04/22 11:35:01;;;;;;;55.83;52.92;;;21.40;99.90;;;;;;5024231;28;20141;-75
2023/04/22 11:37:28;;;;;;;54.65;51.90;;;21.50;99.90;;;;;;5018403;28;20040;-75
2023/04/22 11:39:59;;;;;;;53.95;51.15;;;21.80;99.90;;;;;;5019893;28;20315;-75
2023/04/22 11:42:46;;;;;;;55.33;51.88;;;22.00;99.90;;;;;;5005638;28;20069;-74
2023/04/22 11:45:15;;;;;;;55.28;52.30;;;22.20;99.90;;;;;;5011049;28;20041;-74
2023/04/22 11:47:44;;;;;;;55.45;52.42;;;22.30;99.90;;;;;;5020008;28;20047;-74
2023/04/22 11:50:13;;;;;;;55.08;52.28;;;22.30;99.90;;;;;;5020272;28;20069;-75
2023/04/22 11:53:01;;;;;;;54.15;51.38;;;22.30;99.90;;;;;;4991417;28;20129;-76
2023/04/22 11:55:30;;;;;;;54.53;51.83;;;22.40;99.90;;;;;;5009883;28;20116;-75
2023/04/22 11:58:14;;;;;;;53.65;51.03;;;22.30;99.90;;;;;;5003605;28;20037;-77
2023/04/22 12:00:42;;;;;;;56.13;53.33;;;22.20;99.90;;;;;;5020100;28;20507;-75
2023/04/22 12:03:16;;;;;;;53.40;50.60;;;22.00;99.90;;;;;;5011627;28;20148;-74
2023/04/22 12:05:57;;;;;;;54.40;51.00;;;21.70;99.90;;;;;;5002595;28;20041;-76
2023/04/22 12:08:29;;;;;;;44.80;42.60;;;21.80;99.90;;;;;;5021172;28;20091;-75
2023/04/22 12:10:58;;;;;;;48.35;45.75;;;21.90;99.90;;;;;;5007532;28;20041;-75
2023/04/22 12:13:29;;;;;;;56.08;53.08;;;21.80;99.90;;;;;;5017288;28;20025;-74
2023/04/22 12:16:00;;;;;;;49.05;46.45;;;21.70;99.90;;;;;;5014336;28;20037;-75
2023/04/22 12:18:28;;;;;;;55.58;52.58;;;22.00;99.90;;;;;;5006681;28;20136;-76
2023/04/22 12:21:07;;;;;;;50.53;47.92;;;22.10;99.90;;;;;;5020955;28;20068;-75
2023/04/22 12:23:44;;;;;;;47.53;45.00;;;22.00;99.90;;;;;;5025580;28;20566;-76
2023/04/22 12:26:11;;;;;;;57.03;53.95;;;22.20;99.90;;;;;;5008087;28;20256;-75
2023/04/22 12:28:40;;;;;;;55.88;52.78;;;22.10;99.90;;;;;;5016607;28;20140;-75
2023/04/22 12:31:08;;;;;;;58.30;55.15;;;22.10;99.90;;;;;;5023974;28;20048;-75
2023/04/22 12:33:36;;;;;;;58.25;54.67;;;22.20;99.90;;;;;;5014741;28;20518;-75
2023/04/22 12:36:03;;;;;;;50.38;47.65;;;21.80;99.90;;;;;;5008571;28;20412;-74
2023/04/22 12:38:30;;;;;;;48.20;45.50;;;22.10;99.90;;;;;;4998562;28;20495;-75